createdAt,value
2018-05-11T00:00:07.882Z,20.46
2018-05-11T00:01:17.979Z,20.53
2018-05-11T00:02:27.803Z,20.46
2018-05-11T00:03:37.886Z,20.51
2018-05-11T00:04:47.954Z,20.57
2018-05-11T00:05:58.129Z,20.56
2018-05-11T00:07:07.943Z,20.51
2018-05-11T00:08:18.023Z,20.63
2018-05-11T00:09:28.113Z,20.46
2018-05-11T00:10:38.179Z,20.54
2018-05-11T00:11:48.416Z,20.42
2018-05-11T00:12:58.681Z,20.56
2018-05-11T00:14:08.760Z,20.49
2018-05-11T00:15:18.846Z,20.49
2018-05-11T00:16:28.931Z,20.49
2018-05-11T00:17:39.006Z,20.56
2018-05-11T00:18:48.854Z,20.51
2018-05-11T00:19:58.934Z,20.49
2018-05-11T00:21:08.744Z,20.57
2018-05-11T00:22:18.545Z,20.56
2018-05-11T00:23:28.758Z,20.51
2018-05-11T00:24:39.059Z,20.54
2018-05-11T00:25:49.166Z,20.49
2018-05-11T00:26:58.722Z,20.51
2018-05-11T00:28:08.790Z,20.58
2018-05-11T00:29:18.889Z,20.56
2018-05-11T00:30:28.752Z,20.49
2018-05-11T00:31:38.850Z,20.58
2018-05-11T00:32:48.912Z,20.51
2018-05-11T00:33:59.006Z,20.63
2018-05-11T00:35:09.107Z,20.63
2018-05-11T00:36:18.914Z,20.51
2018-05-11T00:37:28.998Z,20.61
2018-05-11T00:38:39.077Z,20.66
2018-05-11T00:39:48.908Z,20.63
2018-05-11T00:40:59.000Z,20.61
2018-05-11T00:42:09.123Z,20.63
2018-05-11T00:43:18.931Z,20.61
2018-05-11T00:44:28.731Z,20.66
2018-05-11T00:45:38.809Z,20.63
2018-05-11T00:46:48.635Z,20.66
2018-05-11T00:47:58.708Z,20.58
2018-05-11T00:49:08.532Z,20.57
2018-05-11T00:50:18.606Z,20.48
2018-05-11T00:51:28.416Z,20.51
2018-05-11T00:52:38.508Z,20.46
2018-05-11T00:53:48.597Z,20.44
2018-05-11T00:54:58.666Z,20.42
2018-05-11T00:56:08.756Z,20.42
2018-05-11T00:57:18.834Z,20.44
2018-05-11T00:58:28.900Z,20.38
2018-05-11T00:59:38.984Z,20.38
2018-05-11T01:00:49.099Z,20.35
2018-05-11T01:01:59.193Z,20.41
2018-05-11T01:03:09.280Z,20.4
2018-05-11T01:04:19.382Z,20.4
2018-05-11T01:05:29.243Z,20.29
2018-05-11T01:06:39.301Z,20.25
2018-05-11T01:07:49.387Z,20.18
2018-05-11T01:08:59.201Z,20.22
2018-05-11T01:10:09.024Z,20.26
2018-05-11T01:11:19.097Z,20.2
2018-05-11T01:12:28.921Z,20.29
2018-05-11T01:13:38.758Z,20.32
2018-05-11T01:14:48.324Z,20.25
2018-05-11T01:15:58.430Z,20.29
2018-05-11T01:17:08.537Z,20.38
2018-05-11T01:18:18.630Z,20.35
2018-05-11T01:19:28.709Z,20.37
2018-05-11T01:20:38.867Z,20.4
2018-05-11T01:21:48.958Z,20.42
2018-05-11T01:22:58.797Z,20.29
2018-05-11T01:24:08.607Z,20.29
2018-05-11T01:25:18.685Z,20.27
2018-05-11T01:26:28.773Z,20.19
2018-05-11T01:27:38.603Z,20.22
2018-05-11T01:28:48.683Z,20.16
2018-05-11T01:29:58.752Z,20.18
2018-05-11T01:31:08.848Z,20.15
2018-05-11T01:32:18.681Z,20.07
2018-05-11T01:33:28.516Z,20.02
2018-05-11T01:34:38.616Z,20.08
2018-05-11T01:35:48.697Z,20.11
2018-05-11T01:36:58.773Z,20.01
2018-05-11T01:38:08.844Z,20.07
2018-05-11T01:39:18.926Z,20.05
2018-05-11T01:40:29.058Z,20
2018-05-11T01:41:39.141Z,20.04
2018-05-11T01:42:48.686Z,20.1
2018-05-11T01:43:58.252Z,20.01
2018-05-11T01:45:08.153Z,20.15
2018-05-11T01:46:18.326Z,20.01
2018-05-11T01:47:28.406Z,19.97
2018-05-11T01:48:38.221Z,20
2018-05-11T01:49:48.296Z,20
2018-05-11T01:50:58.368Z,19.97
2018-05-11T01:52:08.193Z,19.98
2018-05-11T01:53:18.013Z,19.93
2018-05-11T01:54:28.092Z,20
2018-05-11T01:55:38.164Z,19.97
2018-05-11T01:56:48.253Z,19.95
2018-05-11T01:57:58.325Z,19.95
2018-05-11T01:59:07.919Z,19.82
2018-05-11T02:00:17.511Z,20
2018-05-11T02:01:27.595Z,19.87
2018-05-11T02:02:37.666Z,19.86
2018-05-11T02:03:47.741Z,19.89
2018-05-11T02:04:57.553Z,19.85
2018-05-11T02:06:07.644Z,19.78
2018-05-11T02:07:17.738Z,19.78
2018-05-11T02:08:27.810Z,19.83
2018-05-11T02:09:37.944Z,19.78
2018-05-11T02:10:48.031Z,19.79
2018-05-11T02:11:58.149Z,19.78
2018-05-11T02:13:07.436Z,19.79
2018-05-11T02:14:17.516Z,19.79
2018-05-11T02:15:27.609Z,19.79
2018-05-11T02:16:37.443Z,19.79
2018-05-11T02:17:47.517Z,19.74
2018-05-11T02:18:57.315Z,19.82
2018-05-11T02:20:07.386Z,19.79
2018-05-11T02:21:17.243Z,19.79
2018-05-11T02:22:27.304Z,19.79
2018-05-11T02:23:37.113Z,19.87
2018-05-11T02:24:47.216Z,19.74
2018-05-11T02:25:57.482Z,19.72
2018-05-11T02:27:08.081Z,19.79
2018-05-11T02:28:18.162Z,19.79
2018-05-11T02:29:28.270Z,19.68
2018-05-11T02:30:38.352Z,19.71
2018-05-11T02:31:48.457Z,19.7
2018-05-11T02:32:58.551Z,19.78
2018-05-11T02:34:08.641Z,19.65
2018-05-11T02:35:18.857Z,19.6
2018-05-11T02:36:28.688Z,19.56
2018-05-11T02:37:38.788Z,19.63
2018-05-11T02:38:48.873Z,19.57
2018-05-11T02:39:58.700Z,19.57
2018-05-11T02:41:08.804Z,19.56
2018-05-11T02:42:19.154Z,19.6
2018-05-11T02:43:29.240Z,19.55
2018-05-11T02:44:39.337Z,19.63
2018-05-11T02:45:49.202Z,19.53
2018-05-11T02:46:59.373Z,19.49
2018-05-11T02:48:09.187Z,19.55
2018-05-11T02:49:19.278Z,19.56
2018-05-11T02:50:29.409Z,19.52
2018-05-11T02:51:39.537Z,19.61
2018-05-11T02:52:49.084Z,19.57
2018-05-11T02:53:59.163Z,19.52
2018-05-11T02:55:09.258Z,19.49
2018-05-11T02:56:19.396Z,19.53
2018-05-11T02:57:29.493Z,19.53
2018-05-11T02:58:39.324Z,19.56
2018-05-11T02:59:49.152Z,19.53
2018-05-11T03:00:59.235Z,19.52
2018-05-11T03:02:09.055Z,19.5
2018-05-11T03:34:49.205Z,17.6
2018-05-11T03:35:59.003Z,17.57
2018-05-11T03:37:08.815Z,17.58
2018-05-11T03:38:18.638Z,17.57
2018-05-11T03:39:28.708Z,17.69
2018-05-11T03:40:38.786Z,17.6
2018-05-11T03:41:48.873Z,17.94
2018-05-11T03:42:58.670Z,18.05
2018-05-11T03:44:08.729Z,18.13
2018-05-11T03:45:18.797Z,18.17
2018-05-11T03:46:28.870Z,18.38
2018-05-11T03:47:38.954Z,18.49
2018-05-11T03:48:49.051Z,18.65
2018-05-11T03:49:59.148Z,18.74
2018-05-11T03:51:08.956Z,18.87
2018-05-11T03:52:19.030Z,18.97
2018-05-11T03:53:28.583Z,19.15
2018-05-11T03:54:38.137Z,19.19
2018-05-11T03:55:48.235Z,19.35
2018-05-11T03:56:58.335Z,19.45
2018-05-11T03:58:08.427Z,19.47
2018-05-11T03:59:18.509Z,19.6
2018-05-11T04:00:28.574Z,19.68
2018-05-11T04:01:38.400Z,19.65
2018-05-11T04:02:48.478Z,19.78
2018-05-11T04:03:58.573Z,19.75
2018-05-11T04:05:08.657Z,19.78
2018-05-11T04:06:18.489Z,19.75
2018-05-11T04:07:28.315Z,19.93
2018-05-11T04:08:38.400Z,20
2018-05-11T04:09:48.228Z,19.95
2018-05-11T04:10:58.039Z,20.05
2018-05-11T04:12:08.112Z,20.05
2018-05-11T04:13:18.074Z,20.05
2018-05-11T04:14:27.915Z,20.1
2018-05-11T04:15:37.783Z,20.12
2018-05-11T04:16:47.854Z,20.19
2018-05-11T04:17:57.947Z,20.23
2018-05-11T04:19:07.762Z,20.27
2018-05-11T04:20:17.564Z,20.32
2018-05-11T04:21:27.652Z,20.34
2018-05-11T04:22:37.731Z,20.42
2018-05-11T04:23:47.830Z,20.41
2018-05-11T04:24:57.938Z,20.51
2018-05-11T04:26:07.789Z,20.42
2018-05-11T04:27:17.885Z,20.48
2018-05-11T04:28:27.962Z,20.51
2018-05-11T04:29:37.511Z,20.49
2018-05-11T04:30:47.581Z,20.48
2018-05-11T04:31:57.663Z,20.41
2018-05-11T04:33:07.762Z,20.38
2018-05-11T04:34:17.904Z,20.57
2018-05-11T04:35:27.721Z,20.58
2018-05-11T04:36:37.816Z,20.51
2018-05-11T04:37:47.923Z,20.71
2018-05-11T04:38:57.763Z,20.74
2018-05-11T04:40:07.854Z,20.83
2018-05-11T04:41:17.934Z,20.94
2018-05-11T04:42:27.502Z,21.03
2018-05-11T04:43:37.590Z,21.25
2018-05-11T04:44:47.426Z,21.58
2018-05-11T04:45:57.524Z,22.59
2018-05-11T04:47:07.601Z,23.74
2018-05-11T04:48:17.683Z,24.67
2018-05-11T04:49:27.499Z,25.51
2018-05-11T04:50:37.590Z,26.04
2018-05-11T04:51:47.677Z,26.31
2018-05-11T04:52:57.768Z,26.81
2018-05-11T04:54:07.581Z,27.18
2018-05-11T04:55:17.386Z,27.49
2018-05-11T04:56:27.452Z,27.45
2018-05-11T04:57:37.530Z,27.42
2018-05-11T04:58:47.603Z,27.65
2018-05-11T04:59:57.682Z,27.87
2018-05-11T05:01:07.509Z,28.14
2018-05-11T05:02:17.619Z,28.3
2018-05-11T05:03:27.715Z,28.41
2018-05-11T05:04:37.895Z,28.53
2018-05-11T05:05:47.754Z,28.73
2018-05-11T05:06:57.834Z,28.65
2018-05-11T05:08:07.699Z,28.67
2018-05-11T05:09:17.776Z,29.01
2018-05-11T05:10:27.331Z,29.24
2018-05-11T05:11:37.911Z,29.29
2018-05-11T05:12:47.996Z,29.42
2018-05-11T05:13:58.086Z,29.48
2018-05-11T05:15:08.161Z,29.7
2018-05-11T05:16:17.732Z,29.87
2018-05-11T05:17:27.825Z,29.54
2018-05-11T05:18:37.898Z,28.94
2018-05-11T05:19:47.772Z,28.65
2018-05-11T05:20:57.859Z,28.2
2018-05-11T05:22:07.412Z,27.9
2018-05-11T05:23:17.503Z,27.46
2018-05-11T05:24:27.072Z,27.08
2018-05-11T05:25:36.900Z,26.82
2018-05-11T05:26:46.746Z,26.53
2018-05-11T05:27:56.578Z,26.31
2018-05-11T05:29:06.736Z,26
2018-05-11T05:30:16.580Z,25.91
2018-05-11T05:31:26.455Z,25.71
2018-05-11T05:32:36.550Z,25.69
2018-05-11T05:33:46.363Z,25.66
2018-05-11T05:34:56.446Z,25.59
2018-05-11T05:36:06.281Z,25.59
2018-05-11T05:37:16.366Z,25.6
2018-05-11T05:38:26.435Z,25.6
2018-05-11T05:39:36.248Z,25.57
2018-05-11T05:40:46.348Z,25.41
2018-05-11T05:41:56.461Z,25.32
2018-05-11T05:43:06.551Z,25.27
2018-05-11T05:44:16.675Z,25.32
2018-05-11T05:45:26.747Z,25.32
2018-05-11T05:46:36.825Z,25.44
2018-05-11T05:47:46.658Z,25.57
2018-05-11T05:48:56.485Z,25.6
2018-05-11T05:50:06.572Z,25.63
2018-05-11T05:51:16.667Z,25.7
2018-05-11T05:52:26.488Z,25.76
2018-05-11T05:53:36.575Z,26
2018-05-11T05:54:46.142Z,26.07
2018-05-11T05:55:55.706Z,26.17
2018-05-11T05:57:05.794Z,26.15
2018-05-11T05:58:15.893Z,26.3
2018-05-11T05:59:25.437Z,26.39
2018-05-11T06:00:35.534Z,26.32
2018-05-11T06:01:45.615Z,26.41
2018-05-11T06:02:55.709Z,26.45
2018-05-11T06:04:05.796Z,26.69
2018-05-11T06:05:15.618Z,26.63
2018-05-11T06:06:25.760Z,26.52
2018-05-11T06:07:35.846Z,26.35
2018-05-11T06:08:45.924Z,26.31
2018-05-11T06:09:55.479Z,26.26
2018-05-11T06:11:05.304Z,26.09
2018-05-11T06:12:15.140Z,26
2018-05-11T06:13:24.948Z,26.06
2018-05-11T06:14:34.505Z,26.15
2018-05-11T06:15:44.750Z,26.06
2018-05-11T06:16:54.674Z,25.96
2018-05-11T06:18:04.803Z,25.96
2018-05-11T06:19:14.880Z,25.91
2018-05-11T06:20:24.695Z,25.89
2018-05-11T06:21:34.509Z,25.96
2018-05-11T06:22:44.325Z,25.84
2018-05-11T06:23:54.151Z,25.85
2018-05-11T06:25:04.244Z,25.89
2018-05-11T06:26:14.099Z,25.81
2018-05-11T06:27:24.270Z,25.86
2018-05-11T06:28:34.356Z,25.99
2018-05-11T06:29:44.485Z,26
2018-05-11T06:30:54.076Z,25.99
2018-05-11T06:32:04.164Z,26.03
2018-05-11T06:33:14.251Z,25.91
2018-05-11T06:34:24.367Z,26
2018-05-11T06:35:34.622Z,25.86
2018-05-11T06:36:44.728Z,25.97
2018-05-11T06:37:54.804Z,26.17
2018-05-11T06:39:04.637Z,26.24
2018-05-11T06:40:14.732Z,26.24
2018-05-11T06:41:24.839Z,26.24
2018-05-11T06:42:34.935Z,26.27
2018-05-11T06:43:45.017Z,26.27
2018-05-11T06:44:54.987Z,26.22
2018-05-11T06:46:05.288Z,26.2
2018-05-11T06:47:15.283Z,26.22
2018-05-11T06:48:25.106Z,26.16
2018-05-11T06:49:35.176Z,26.01
2018-05-11T06:50:45.248Z,26.01
2018-05-11T06:51:55.061Z,25.89
2018-05-11T06:53:05.184Z,25.81
2018-05-11T06:54:15.269Z,25.93
2018-05-11T06:55:25.366Z,25.86
2018-05-11T06:56:35.469Z,25.94
2018-05-11T06:57:45.373Z,25.84
2018-05-11T06:58:55.510Z,25.78
2018-05-11T07:00:05.584Z,25.89
2018-05-11T07:01:15.404Z,25.89
2018-05-11T07:02:25.507Z,25.93
2018-05-11T07:03:35.600Z,26.03
2018-05-11T07:04:45.685Z,25.99
2018-05-11T07:05:55.791Z,25.82
2018-05-11T07:07:05.889Z,25.79
2018-05-11T07:08:15.989Z,25.84
2018-05-11T07:09:25.796Z,25.6
2018-05-11T07:10:35.626Z,25.59
2018-05-11T07:11:45.705Z,25.78
2018-05-11T07:12:55.795Z,25.7
2018-05-11T07:14:05.860Z,25.81
2018-05-11T07:15:15.939Z,25.88
2018-05-11T07:16:26.029Z,25.76
2018-05-11T07:17:36.093Z,25.86
2018-05-11T07:18:45.926Z,25.91
2018-05-11T07:19:56.025Z,26.12
2018-05-11T07:21:06.106Z,26.2
2018-05-11T07:22:16.173Z,26.32
2018-05-11T07:23:26.257Z,26.34
2018-05-11T07:24:36.323Z,26.3
2018-05-11T07:25:46.312Z,26.41
2018-05-11T07:26:56.384Z,26.47
2018-05-11T07:28:06.217Z,26.44
2018-05-11T07:29:16.386Z,26.64
2018-05-11T07:30:25.967Z,26.72
2018-05-11T07:31:35.523Z,26.87
2018-05-11T07:32:45.357Z,26.96
2018-05-11T07:33:55.232Z,26.9
2018-05-11T07:35:05.516Z,26.93
2018-05-11T07:36:15.611Z,26.93
2018-05-11T07:37:25.436Z,26.97
2018-05-11T07:38:35.237Z,27.13
2018-05-11T07:39:45.390Z,27.09
2018-05-11T07:40:55.484Z,27.13
2018-05-11T07:42:05.554Z,27.01
2018-05-11T07:43:15.359Z,26.89
2018-05-11T07:44:25.699Z,26.67
2018-05-11T07:45:35.255Z,26.42
2018-05-11T07:46:45.076Z,26.12
2018-05-11T07:47:54.904Z,25.94
2018-05-11T07:49:05.006Z,25.69
2018-05-11T07:50:15.082Z,25.66
2018-05-11T07:51:25.240Z,25.39
2018-05-11T07:52:35.206Z,25.33
2018-05-11T07:53:45.018Z,25.15
2018-05-11T07:54:55.113Z,25.11
2018-05-11T07:56:04.690Z,25.11
2018-05-11T07:57:14.535Z,25.02
2018-05-11T07:58:24.363Z,25.11
2018-05-11T07:59:34.460Z,25.04
2018-05-11T08:00:44.559Z,25
2018-05-11T08:01:54.666Z,25.09
2018-05-11T08:03:04.754Z,25.07
2018-05-11T08:04:14.863Z,25.15
2018-05-11T08:05:24.951Z,25.22
2018-05-11T08:06:34.763Z,25.34
2018-05-11T08:07:44.572Z,25.38
2018-05-11T08:08:54.699Z,25.37
2018-05-11T08:10:04.520Z,25.51
2018-05-11T08:11:14.582Z,25.59
2018-05-11T08:12:24.482Z,25.63
2018-05-11T08:13:34.604Z,25.76
2018-05-11T08:14:44.678Z,25.79
2018-05-11T08:15:54.755Z,25.94
2018-05-11T08:17:04.589Z,26.11
2018-05-11T08:18:14.417Z,26.24
2018-05-11T08:19:23.966Z,26.31
2018-05-11T08:20:34.066Z,26.42
2018-05-11T08:21:44.252Z,26.53
2018-05-11T08:22:54.085Z,26.64
2018-05-11T08:24:04.175Z,26.59
2018-05-11T08:25:14.264Z,26.6
2018-05-11T08:26:24.104Z,26.64
2018-05-11T08:27:34.184Z,26.6
2018-05-11T08:28:44.264Z,26.69
2018-05-11T08:29:54.366Z,26.68
2018-05-11T08:31:04.186Z,26.61
2018-05-11T08:32:13.996Z,26.69
2018-05-11T08:33:23.829Z,26.59
2018-05-11T08:34:33.898Z,26.57
2018-05-11T08:35:43.794Z,26.56
2018-05-11T08:36:53.808Z,26.47
2018-05-11T08:38:03.368Z,26.45
2018-05-11T08:39:13.251Z,26.41
2018-05-11T08:40:22.818Z,26.5
2018-05-11T08:41:32.923Z,26.32
2018-05-11T08:42:43.009Z,26.41
2018-05-11T08:43:53.097Z,26.38
2018-05-11T08:45:03.282Z,26.41
2018-05-11T08:46:13.352Z,26.47
2018-05-11T08:47:23.488Z,26.53
2018-05-11T08:48:33.562Z,26.6
2018-05-11T08:49:43.653Z,26.79
2018-05-11T08:50:53.748Z,26.87
2018-05-11T08:52:03.903Z,26.94
2018-05-11T08:53:13.981Z,27.09
2018-05-11T08:54:24.070Z,27.27
2018-05-11T08:55:34.155Z,27.41
2018-05-11T08:56:44.301Z,27.45
2018-05-11T08:57:53.878Z,27.52
2018-05-11T08:59:03.445Z,27.72
2018-05-11T09:00:13.546Z,28.02
2018-05-11T09:01:23.398Z,28.35
2018-05-11T09:02:33.465Z,28.67
2018-05-11T09:03:43.311Z,28.95
2018-05-11T09:04:53.394Z,29.05
2018-05-11T09:06:03.500Z,29.14
2018-05-11T09:07:13.573Z,29.1
2018-05-11T09:08:23.697Z,29.18
2018-05-11T09:09:33.527Z,29.17
2018-05-11T09:10:43.625Z,29.21
2018-05-11T09:11:53.728Z,29.33
2018-05-11T09:13:03.840Z,29.3
2018-05-11T09:14:13.932Z,29.24
2018-05-11T09:15:23.766Z,29.48
2018-05-11T09:16:33.615Z,29.42
2018-05-11T09:17:43.446Z,29.54
2018-05-11T09:18:53.540Z,29.75
2018-05-11T09:20:03.630Z,30.03
2018-05-11T09:21:13.452Z,30.1
2018-05-11T09:22:23.358Z,30.16
2018-05-11T09:23:33.436Z,30.16
2018-05-11T09:24:43.546Z,30.31
2018-05-11T09:25:53.633Z,30.57
2018-05-11T09:27:03.721Z,30.73
2018-05-11T09:28:13.558Z,30.69
2018-05-11T09:29:23.634Z,30.77
2018-05-11T09:30:33.450Z,30.86
2018-05-11T09:31:43.329Z,30.42
2018-05-11T09:32:53.651Z,30.22
2018-05-11T09:34:03.734Z,30.02
2018-05-11T09:35:13.822Z,29.73
2018-05-11T09:36:23.637Z,29.54
2018-05-11T09:37:33.714Z,29.5
2018-05-11T09:38:43.544Z,29.45
2018-05-11T09:39:54.097Z,29.33
2018-05-11T09:41:04.289Z,29.13
2018-05-11T09:42:14.384Z,28.91
2018-05-11T09:43:24.477Z,28.79
2018-05-11T09:44:34.560Z,28.63
2018-05-11T09:45:44.646Z,28.42
2018-05-11T09:46:54.783Z,28.3
2018-05-11T09:48:04.868Z,28.14
2018-05-11T09:49:14.959Z,28.11
2018-05-11T09:50:25.147Z,28.08
2018-05-11T09:51:34.713Z,28.14
2018-05-11T09:52:44.595Z,28.27
2018-05-11T09:53:54.677Z,28.49
2018-05-11T09:55:04.693Z,28.68
2018-05-11T09:56:15.114Z,28.85
2018-05-11T09:57:25.190Z,28.98
2018-05-11T09:58:35.014Z,28.98
2018-05-11T09:59:44.569Z,29.02
2018-05-11T10:00:54.879Z,29.03
2018-05-11T10:02:05.072Z,29.06
2018-05-11T10:03:15.146Z,29.01
2018-05-11T10:04:24.969Z,29.01
2018-05-11T10:05:35.050Z,29.05
2018-05-11T10:06:45.135Z,28.95
2018-05-11T10:07:55.005Z,28.91
2018-05-11T10:09:05.185Z,28.91
2018-05-11T10:10:14.803Z,28.83
2018-05-11T10:11:24.877Z,28.85
2018-05-11T10:12:34.964Z,28.78
2018-05-11T10:13:45.088Z,28.67
2018-05-11T10:14:55.152Z,28.7
2018-05-11T10:16:05.072Z,28.6
2018-05-11T10:17:15.160Z,28.57
2018-05-11T10:18:25.248Z,28.73
2018-05-11T10:19:35.069Z,28.85
2018-05-11T10:20:44.994Z,28.95
2018-05-11T10:21:55.276Z,29.06
2018-05-11T10:23:05.365Z,29.32
2018-05-11T10:24:15.207Z,29.54
2018-05-11T10:25:25.282Z,29.65
2018-05-11T10:26:35.380Z,29.77
2018-05-11T10:27:44.940Z,29.98
2018-05-11T10:28:55.374Z,30.02
2018-05-11T10:30:05.348Z,30.18
2018-05-11T10:31:15.448Z,30.34
2018-05-11T10:32:25.535Z,30.47
2018-05-11T10:33:35.418Z,30.7
2018-05-11T10:34:45.507Z,30.88
2018-05-11T10:35:55.608Z,31.1
2018-05-11T10:37:05.703Z,31.21
2018-05-11T10:38:15.542Z,31.28
2018-05-11T10:39:25.685Z,31.36
2018-05-11T10:40:35.786Z,31.43
2018-05-11T10:41:45.868Z,31.45
2018-05-11T10:42:55.989Z,31.47
2018-05-11T10:44:05.813Z,31.59
2018-05-11T10:45:15.917Z,31.71
2018-05-11T10:46:26.282Z,31.68
2018-05-11T10:47:36.376Z,31.82
2018-05-11T10:48:46.906Z,31.98
2018-05-11T10:49:57.134Z,32.06
2018-05-11T10:51:07.291Z,32.06
2018-05-11T10:52:17.383Z,32.17
2018-05-11T10:53:27.470Z,32.28
2018-05-11T10:54:37.323Z,32.32
2018-05-11T10:55:47.391Z,32.31
2018-05-11T10:56:57.525Z,32.37
2018-05-11T10:58:07.620Z,32.27
2018-05-11T10:59:17.444Z,32.17
2018-05-11T11:00:27.531Z,32.24
2018-05-11T11:01:37.359Z,32.42
2018-05-11T11:02:47.543Z,32.38
2018-05-11T11:03:57.111Z,32.53
2018-05-11T11:05:07.201Z,32.74
2018-05-11T11:06:17.283Z,32.75
2018-05-11T11:07:27.354Z,32.99
2018-05-11T11:08:37.459Z,33.43
2018-05-11T11:09:47.305Z,33.53
2018-05-11T11:10:57.398Z,33.47
2018-05-11T11:12:07.214Z,33.37
2018-05-11T11:13:17.046Z,33.62
2018-05-11T11:14:27.121Z,33.9
2018-05-11T11:15:37.277Z,34.1
2018-05-11T11:16:47.365Z,34.27
2018-05-11T11:17:57.447Z,34.4
2018-05-11T11:19:07.528Z,34.36
2018-05-11T11:20:17.680Z,34.34
2018-05-11T11:21:28.041Z,34.39
2018-05-11T11:22:38.119Z,34.48
2018-05-11T11:23:48.212Z,34.59
2018-05-11T11:24:58.316Z,34.67
2018-05-11T11:26:08.682Z,34.83
2018-05-11T11:27:18.496Z,34.72
2018-05-11T11:28:28.591Z,34.49
2018-05-11T11:29:38.710Z,34.26
2018-05-11T11:30:48.804Z,34.05
2018-05-11T11:31:58.942Z,33.99
2018-05-11T11:33:09.060Z,33.73
2018-05-11T11:34:19.284Z,33.59
2018-05-11T11:35:29.493Z,33.52
2018-05-11T11:36:39.613Z,33.37
2018-05-11T11:37:49.711Z,33.28
2018-05-11T11:38:59.833Z,33.08
2018-05-11T11:40:09.931Z,32.86
2018-05-11T11:41:20.041Z,32.67
2018-05-11T11:42:30.137Z,32.47
2018-05-11T11:43:39.698Z,32.27
2018-05-11T11:44:49.795Z,32.2
2018-05-11T11:45:59.911Z,32.1
2018-05-11T11:47:09.755Z,32.01
2018-05-11T11:48:19.862Z,31.91
2018-05-11T11:49:29.446Z,31.93
2018-05-11T11:50:39.529Z,31.86
2018-05-11T11:51:49.713Z,31.67
2018-05-11T11:52:59.831Z,31.62
2018-05-11T11:54:09.927Z,31.47
2018-05-11T11:55:20.099Z,31.47
2018-05-11T11:56:30.416Z,31.33
2018-05-11T11:57:40.665Z,31.18
2018-05-11T11:58:50.563Z,31.1
2018-05-11T12:00:00.689Z,30.93
2018-05-11T12:01:10.666Z,30.81
2018-05-11T12:02:20.489Z,30.79
2018-05-11T12:03:30.576Z,30.77
2018-05-11T12:04:40.678Z,30.73
2018-05-11T12:05:50.785Z,30.75
2018-05-11T12:07:00.643Z,30.62
2018-05-11T12:08:10.730Z,30.64
2018-05-11T12:09:20.844Z,30.7
2018-05-11T12:10:30.685Z,30.73
2018-05-11T12:11:41.202Z,30.66
2018-05-11T12:12:51.379Z,30.56
2018-05-11T12:14:01.460Z,30.62
2018-05-11T12:15:11.312Z,30.59
2018-05-11T12:16:21.407Z,30.54
2018-05-11T12:17:31.503Z,30.57
2018-05-11T12:18:41.587Z,30.57
2018-05-11T12:19:51.700Z,30.56
2018-05-11T12:21:01.626Z,30.64
2018-05-11T12:22:11.737Z,30.66
2018-05-11T12:31:35.237Z,30.57
2018-05-11T12:32:45.080Z,30.49
2018-05-11T12:33:55.166Z,30.34
2018-05-11T12:35:05.338Z,30.54
2018-05-11T12:36:15.176Z,30.7
2018-05-11T12:37:25.047Z,30.71
2018-05-11T12:38:35.146Z,30.73
2018-05-11T12:39:45.275Z,30.71
2018-05-11T12:40:56.120Z,30.73
2018-05-11T12:42:07.058Z,30.75
2018-05-11T12:43:17.299Z,30.75
2018-05-11T12:44:27.655Z,30.69
2018-05-11T12:45:38.107Z,30.73
2018-05-11T12:46:48.710Z,30.7
2018-05-11T12:47:59.345Z,30.77
2018-05-11T12:49:09.552Z,30.82
2018-05-11T12:50:19.742Z,30.91
2018-05-11T12:51:30.148Z,30.91
2018-05-11T12:52:40.517Z,30.96
2018-05-11T12:53:51.326Z,30.96
2018-05-11T12:55:01.996Z,30.82
2018-05-11T12:56:12.352Z,30.86
2018-05-11T12:57:23.198Z,30.84
2018-05-11T12:58:33.888Z,30.84
2018-05-11T12:59:44.490Z,30.77
2018-05-11T13:00:54.666Z,30.7
2018-05-11T13:02:04.799Z,30.71
2018-05-11T13:03:15.149Z,30.54
2018-05-11T13:04:25.249Z,30.21
2018-05-11T13:05:35.318Z,30.19
2018-05-11T13:06:45.556Z,30.26
2018-05-11T13:07:55.656Z,30.37
2018-05-11T13:09:05.776Z,30.48
2018-05-11T13:10:15.883Z,30.63
2018-05-11T13:11:25.990Z,30.67
2018-05-11T13:12:36.139Z,30.81
2018-05-11T13:13:45.978Z,30.91
2018-05-11T13:14:55.809Z,31
2018-05-11T13:16:05.633Z,31.06
2018-05-11T13:17:15.749Z,31.04
2018-05-11T13:18:25.585Z,30.99
2018-05-11T13:19:35.409Z,30.91
2018-05-11T13:20:45.671Z,30.97
2018-05-11T13:21:56.036Z,30.85
2018-05-11T13:23:06.325Z,30.75
2018-05-11T13:24:15.950Z,30.47
2018-05-11T13:25:26.065Z,30.04
2018-05-11T13:26:36.156Z,29.82
2018-05-11T13:27:45.978Z,29.73
2018-05-11T13:28:55.811Z,29.73
2018-05-11T13:30:05.645Z,30.09
2018-05-11T13:31:15.799Z,30.29
2018-05-11T13:32:25.896Z,30.52
2018-05-11T13:33:35.988Z,30.6
2018-05-11T13:34:46.084Z,30.71
2018-05-11T13:35:56.176Z,30.91
2018-05-11T13:37:06.275Z,31.01
2018-05-11T13:38:16.110Z,30.85
2018-05-11T13:39:26.228Z,30.52
2018-05-11T13:40:36.062Z,30.31
2018-05-11T13:41:46.165Z,30.03
2018-05-11T13:42:56.299Z,30.09
2018-05-11T13:44:06.384Z,30.13
2018-05-11T13:45:16.504Z,30.4
2018-05-11T13:46:26.363Z,30.18
2018-05-11T13:47:36.703Z,30.14
2018-05-11T13:48:46.810Z,30.04
2018-05-11T13:49:56.912Z,30.04
2018-05-11T13:51:07.032Z,29.98
2018-05-11T13:52:16.862Z,30.04
2018-05-11T13:53:26.959Z,30.04
2018-05-11T13:54:36.523Z,30.16
2018-05-11T13:55:46.616Z,30.07
2018-05-11T13:56:56.454Z,29.95
2018-05-11T13:58:06.289Z,29.76
2018-05-11T13:59:16.401Z,29.73
2018-05-11T14:00:26.488Z,29.81
2018-05-11T14:01:36.590Z,30.1
2018-05-11T14:02:46.415Z,30.45
2018-05-11T14:03:56.510Z,30.7
2018-05-11T14:05:06.661Z,30.85
2018-05-11T14:06:16.496Z,30.99
2018-05-11T14:07:26.592Z,31.08
2018-05-11T14:08:36.179Z,31.31
2018-05-11T14:09:46.007Z,31.22
2018-05-11T14:10:56.226Z,31.33
2018-05-11T14:12:06.409Z,31.19
2018-05-11T14:13:16.489Z,31.08
2018-05-11T14:14:26.584Z,30.78
2018-05-11T14:15:36.681Z,30.35
2018-05-11T14:16:46.831Z,30.31
2018-05-11T14:17:57.240Z,30.49
2018-05-11T14:19:07.335Z,30.24
2018-05-11T14:20:17.441Z,30.04
2018-05-11T14:21:27.528Z,30.03
2018-05-11T14:22:37.686Z,30.1
2018-05-11T14:23:47.801Z,30.14
2018-05-11T14:24:58.045Z,30.35
2018-05-11T14:26:08.521Z,30.48
2018-05-11T14:27:18.636Z,30.6
2018-05-11T14:28:28.743Z,30.66
2018-05-11T14:29:38.571Z,30.63
2018-05-11T14:30:48.691Z,30.69
2018-05-11T14:31:58.620Z,30.63
2018-05-11T14:33:08.936Z,30.48
2018-05-11T14:34:19.014Z,30.48
2018-05-11T14:35:28.911Z,30.47
2018-05-11T14:36:39.019Z,30.51
2018-05-11T14:37:49.114Z,30.48
2018-05-11T14:38:59.221Z,30.64
2018-05-11T14:40:09.321Z,30.6
2018-05-11T14:41:19.151Z,30.7
2018-05-11T14:42:29.240Z,30.73
2018-05-11T14:43:39.368Z,30.73
2018-05-11T14:44:49.443Z,30.75
2018-05-11T14:45:59.580Z,30.69
2018-05-11T14:47:09.695Z,30.77
2018-05-11T14:48:19.820Z,30.82
2018-05-11T14:49:29.918Z,30.77
2018-05-11T14:50:40.147Z,30.73
2018-05-11T14:51:50.282Z,30.7
2018-05-11T14:53:00.435Z,30.81
2018-05-11T14:54:10.261Z,30.82
2018-05-11T14:55:20.364Z,30.86
2018-05-11T14:56:30.469Z,30.99
2018-05-11T14:57:40.641Z,30.99
2018-05-11T14:58:50.417Z,31
2018-05-11T15:00:00.600Z,31.12
2018-05-11T15:01:10.152Z,31.15
2018-05-11T15:02:19.983Z,31.01
2018-05-11T15:03:30.123Z,31.06
2018-05-11T15:04:40.232Z,31.12
2018-05-11T15:05:50.413Z,31.08
2018-05-11T15:07:00.280Z,31.08
2018-05-11T15:08:09.841Z,31.16
2018-05-11T15:09:19.942Z,31.1
2018-05-11T15:10:30.039Z,31.15
2018-05-11T15:11:40.133Z,31.26
2018-05-11T15:12:49.987Z,31.15
2018-05-11T15:14:00.098Z,31.31
2018-05-11T15:15:09.970Z,31.34
2018-05-11T15:16:19.539Z,31.41
2018-05-11T15:17:29.401Z,31.45
2018-05-11T15:18:39.510Z,31.44
2018-05-11T15:19:49.639Z,31.41
2018-05-11T15:20:59.747Z,31.4
2018-05-11T15:22:09.851Z,31.41
2018-05-11T15:23:19.710Z,31.37
2018-05-11T15:24:29.569Z,31.41
2018-05-11T15:25:39.391Z,31.59
2018-05-11T15:26:49.543Z,31.7
2018-05-11T15:27:59.619Z,31.77
2018-05-11T15:29:09.764Z,31.74
2018-05-11T15:30:19.327Z,31.86
2018-05-11T15:31:28.899Z,31.74
2018-05-11T15:32:39.000Z,31.74
2018-05-11T15:33:48.850Z,31.72
2018-05-11T15:34:58.702Z,31.68
2018-05-11T15:36:08.571Z,31.63
2018-05-11T15:37:18.649Z,31.4
2018-05-11T15:38:28.741Z,31.53
2018-05-11T15:39:38.588Z,31.44
2018-05-11T15:40:48.403Z,31.45
2018-05-11T15:41:58.516Z,31.68
2018-05-11T15:43:08.350Z,31.56
2018-05-11T15:44:18.612Z,31.62
2018-05-11T15:45:28.475Z,31.65